createdAt,value
2023-05-08T00:01:11.607Z,15.98
2023-05-08T00:03:38.932Z,16.60
2023-05-08T00:06:06.773Z,13.00
2023-05-08T00:08:33.919Z,15.55
2023-05-08T00:11:01.450Z,14.98
2023-05-08T00:13:28.490Z,12.77
2023-05-08T00:15:55.899Z,13.57
2023-05-08T00:18:23.043Z,13.60
2023-05-08T00:20:50.386Z,16.50
2023-05-08T00:23:17.382Z,14.98
2023-05-08T00:25:44.707Z,16.75
2023-05-08T00:28:11.722Z,17.83
2023-05-08T00:30:39.072Z,16.20
2023-05-08T00:33:06.166Z,13.25
2023-05-08T00:35:33.938Z,14.68
2023-05-08T00:38:01.440Z,16.08
2023-05-08T00:40:28.815Z,17.50
2023-05-08T00:42:55.798Z,14.85
2023-05-08T00:45:23.178Z,13.52
2023-05-08T00:47:51.123Z,16.15
2023-05-08T00:50:18.904Z,14.73
2023-05-08T00:52:46.712Z,17.65
2023-05-08T00:55:14.112Z,15.40
2023-05-08T00:57:41.357Z,14.95
2023-05-08T01:00:10.016Z,16.08
2023-05-08T01:02:37.397Z,17.25
2023-05-08T01:05:05.745Z,15.10
2023-05-08T01:07:32.868Z,17.95
2023-05-08T01:10:00.660Z,17.40
2023-05-08T01:13:06.522Z,16.77
2023-05-08T01:15:54.310Z,16.58
2023-05-08T01:21:17.732Z,18.13
2023-05-08T01:24:15.531Z,18.30
2023-05-08T01:27:02.902Z,19.27
2023-05-08T01:29:41.348Z,14.25
2023-05-08T01:32:14.231Z,16.83
2023-05-08T01:34:49.909Z,15.68
2023-05-08T01:37:27.672Z,11.15
2023-05-08T01:40:01.669Z,15.45
2023-05-08T01:42:28.958Z,14.38
2023-05-08T01:45:01.696Z,14.90
2023-05-08T01:47:37.303Z,12.10
2023-05-08T01:50:15.216Z,14.07
2023-05-08T01:55:21.385Z,14.30
2023-05-08T01:57:53.892Z,13.00
2023-05-08T02:00:23.783Z,17.27
2023-05-08T02:02:52.441Z,15.90
2023-05-08T02:05:22.592Z,13.95
2023-05-08T02:07:51.294Z,16.75
2023-05-08T02:10:19.628Z,15.55
2023-05-08T02:12:48.580Z,13.23
2023-05-08T02:15:17.468Z,17.02
2023-05-08T02:17:48.558Z,14.20
2023-05-08T02:20:16.302Z,17.65
2023-05-08T02:22:45.072Z,15.25
2023-05-08T02:25:14.795Z,15.90
2023-05-08T02:27:45.709Z,15.25
2023-05-08T02:30:17.593Z,19.05
2023-05-08T02:32:47.883Z,13.98
2023-05-08T02:35:17.328Z,21.05
2023-05-08T02:37:49.033Z,13.75
2023-05-08T02:40:17.787Z,14.90
2023-05-08T02:42:46.740Z,15.88
2023-05-08T02:45:14.556Z,15.15
2023-05-08T02:48:00.227Z,15.95
2023-05-08T02:50:53.850Z,23.45
2023-05-08T02:53:31.632Z,14.63
2023-05-08T02:56:10.992Z,14.30
2023-05-08T02:58:42.767Z,15.27
2023-05-08T03:01:24.874Z,11.73
2023-05-08T03:04:08.857Z,16.13
2023-05-08T03:06:47.421Z,19.58
2023-05-08T03:09:23.114Z,18.67
2023-05-08T03:11:53.844Z,21.45
2023-05-08T03:14:24.844Z,19.13
2023-05-08T03:16:55.147Z,18.25
2023-05-08T03:19:34.470Z,18.08
2023-05-08T03:22:06.380Z,18.13
2023-05-08T03:24:36.573Z,17.63
2023-05-08T03:27:05.971Z,18.05
2023-05-08T03:29:34.564Z,15.82
2023-05-08T03:32:02.861Z,18.77
2023-05-08T03:34:31.242Z,14.68
2023-05-08T03:36:58.366Z,18.75
2023-05-08T03:39:26.928Z,15.73
2023-05-08T03:41:56.093Z,16.23
2023-05-08T03:44:26.070Z,14.27
2023-05-08T03:46:56.786Z,15.48
2023-05-08T03:49:26.415Z,20.02
2023-05-08T03:51:55.559Z,16.17
2023-05-08T03:54:25.716Z,15.15
2023-05-08T03:56:54.664Z,16.58
2023-05-08T03:59:33.694Z,19.38
2023-05-08T04:02:24.121Z,16.55
2023-05-08T04:05:01.911Z,20.42
2023-05-08T04:07:38.046Z,17.58
2023-05-08T04:10:15.434Z,18.88
2023-05-08T04:12:57.940Z,12.93
2023-05-08T04:15:34.142Z,16.65
2023-05-08T04:18:06.399Z,18.88
2023-05-08T04:20:34.692Z,19.73
2023-05-08T04:23:03.865Z,20.63
2023-05-08T04:25:35.334Z,14.30
2023-05-08T04:28:03.144Z,17.17
2023-05-08T04:30:32.060Z,16.58
2023-05-08T04:33:00.871Z,17.45
2023-05-08T04:35:29.016Z,19.13
2023-05-08T04:37:58.606Z,19.75
2023-05-08T04:40:26.280Z,19.83
2023-05-08T04:42:53.807Z,21.65
2023-05-08T04:45:22.768Z,19.65
2023-05-08T04:47:49.923Z,23.23
2023-05-08T04:50:17.833Z,19.65
2023-05-08T04:52:44.982Z,20.05
2023-05-08T04:55:12.640Z,18.35
2023-05-08T04:57:40.023Z,21.05
2023-05-08T05:00:09.249Z,20.20
2023-05-08T05:02:40.337Z,17.48
2023-05-08T05:05:08.451Z,16.77
2023-05-08T05:07:35.960Z,22.73
2023-05-08T05:10:04.353Z,19.88
2023-05-08T05:12:32.911Z,20.73
2023-05-08T05:15:00.527Z,16.88
2023-05-08T05:17:31.539Z,20.83
2023-05-08T05:19:59.877Z,18.48
2023-05-08T05:22:28.844Z,19.27
2023-05-08T05:24:56.468Z,20.77
2023-05-08T05:27:24.688Z,16.45
2023-05-08T05:29:52.704Z,15.85
2023-05-08T05:32:20.729Z,17.58
2023-05-08T05:34:48.679Z,14.73
2023-05-08T05:37:15.697Z,19.00
2023-05-08T05:39:43.139Z,15.90
2023-05-08T05:42:10.172Z,15.25
2023-05-08T05:44:37.848Z,18.95
2023-05-08T05:47:10.694Z,18.48
2023-05-08T05:49:42.953Z,23.30
2023-05-08T05:52:11.252Z,17.55
2023-05-08T05:54:38.893Z,15.90
2023-05-08T05:57:06.438Z,17.33
2023-05-08T05:59:34.907Z,16.65
2023-05-08T06:02:02.602Z,19.77
2023-05-08T06:04:30.392Z,18.63
2023-05-08T06:06:58.091Z,16.35
2023-05-08T06:09:25.411Z,16.98
2023-05-08T06:11:52.482Z,14.77
2023-05-08T06:14:20.402Z,14.98
2023-05-08T06:16:47.556Z,15.10
2023-05-08T06:19:16.156Z,22.75
2023-05-08T06:21:43.415Z,20.85
2023-05-08T06:24:11.705Z,19.05
2023-05-08T06:26:38.719Z,15.55
2023-05-08T06:29:06.211Z,20.27
2023-05-08T06:31:33.509Z,13.30
2023-05-08T06:34:00.903Z,18.33
2023-05-08T06:36:28.008Z,17.10
2023-05-08T06:38:55.695Z,10.52
2023-05-08T06:41:22.856Z,12.65
2023-05-08T06:43:50.298Z,10.15
2023-05-08T06:46:17.517Z,8.80
2023-05-08T06:48:44.866Z,12.85
2023-05-08T06:51:11.987Z,14.25
2023-05-08T06:53:39.282Z,10.77
2023-05-08T06:56:07.080Z,13.85
2023-05-08T06:58:34.724Z,13.25
2023-05-08T07:01:01.932Z,13.00
2023-05-08T07:03:29.319Z,12.88
2023-05-08T07:05:56.610Z,13.77
2023-05-08T07:08:23.973Z,12.23
2023-05-08T07:10:51.006Z,15.73
2023-05-08T07:13:21.713Z,15.68
2023-05-08T07:15:49.122Z,14.73
2023-05-08T07:18:16.539Z,14.70
2023-05-08T07:20:43.615Z,13.50
2023-05-08T07:23:11.015Z,12.68
2023-05-08T07:25:38.099Z,16.15
2023-05-08T07:28:05.553Z,18.73
2023-05-08T07:30:33.759Z,17.58
2023-05-08T07:33:01.300Z,13.43
2023-05-08T07:35:29.513Z,11.88
2023-05-08T07:37:56.899Z,13.80
2023-05-08T07:40:24.015Z,10.60
2023-05-08T07:42:51.356Z,15.13
2023-05-08T07:45:18.563Z,12.88
2023-05-08T07:47:52.800Z,12.82
2023-05-08T07:50:20.616Z,7.95
2023-05-08T07:52:50.174Z,9.43
2023-05-08T07:55:18.415Z,10.27
2023-05-08T07:57:46.157Z,9.02
2023-05-08T08:00:15.031Z,9.80
2023-05-08T08:02:43.454Z,5.00
2023-05-08T08:05:11.298Z,9.18
2023-05-08T08:07:39.219Z,6.85
2023-05-08T08:10:07.366Z,6.80
2023-05-08T08:12:34.844Z,6.80
2023-05-08T08:15:02.249Z,19.00
2023-05-08T08:17:29.618Z,7.93
2023-05-08T08:19:57.272Z,6.50
2023-05-08T08:22:25.874Z,8.35
2023-05-08T08:24:55.249Z,7.50
2023-05-08T08:27:23.360Z,9.13
2023-05-08T08:29:52.596Z,6.70
2023-05-08T08:32:26.115Z,7.10
2023-05-08T08:34:53.227Z,6.65
2023-05-08T08:37:20.585Z,8.77
2023-05-08T08:39:48.590Z,8.05
2023-05-08T08:42:16.005Z,7.15
2023-05-08T08:44:43.240Z,5.85
2023-05-08T08:47:14.199Z,7.82
2023-05-08T08:49:48.912Z,7.88
2023-05-08T08:52:30.504Z,7.72
2023-05-08T08:55:01.162Z,7.03
2023-05-08T08:57:33.879Z,6.72
2023-05-08T09:00:05.403Z,11.77
2023-05-08T09:02:33.030Z,8.43
2023-05-08T09:05:00.857Z,8.68
2023-05-08T09:07:30.109Z,6.03
2023-05-08T09:09:57.522Z,7.55
2023-05-08T09:12:24.920Z,6.97
2023-05-08T09:14:52.121Z,7.38
2023-05-08T09:17:19.677Z,8.63
2023-05-08T09:19:49.594Z,9.18
2023-05-08T09:22:18.218Z,12.10
2023-05-08T09:24:59.811Z,8.52
2023-05-08T09:27:29.473Z,5.68
2023-05-08T09:30:04.968Z,6.90
2023-05-08T09:32:33.779Z,12.23
2023-05-08T09:35:01.687Z,8.43
2023-05-08T09:37:29.603Z,10.82
2023-05-08T09:40:17.778Z,5.25
2023-05-08T09:42:46.194Z,6.90
2023-05-08T09:45:29.672Z,9.50
2023-05-08T09:47:57.530Z,5.22
2023-05-08T09:50:25.715Z,10.60
2023-05-08T09:52:53.160Z,8.65
2023-05-08T09:55:20.452Z,8.07
2023-05-08T09:57:59.175Z,6.88
2023-05-08T10:00:28.002Z,5.55
2023-05-08T10:03:00.167Z,21.98
2023-05-08T10:05:36.337Z,7.13
2023-05-08T10:10:47.433Z,9.85
2023-05-08T10:13:15.221Z,6.13
2023-05-08T10:15:43.723Z,7.18
2023-05-08T10:18:14.258Z,10.98
2023-05-08T10:20:44.432Z,7.10
2023-05-08T10:23:17.621Z,9.02
2023-05-08T10:25:47.162Z,8.05
2023-05-08T10:28:40.717Z,6.63
2023-05-08T10:31:08.308Z,5.93
2023-05-08T10:33:39.287Z,5.97
2023-05-08T10:36:07.384Z,6.13
2023-05-08T10:38:36.196Z,7.60
2023-05-08T10:41:03.348Z,5.35
2023-05-08T10:43:33.576Z,7.80
2023-05-08T10:46:09.236Z,26.20
2023-05-08T10:48:58.118Z,4.18
2023-05-08T10:52:00.947Z,5.85
2023-05-08T10:54:47.232Z,4.72
2023-05-08T10:57:15.572Z,7.77
2023-05-08T10:59:48.835Z,16.75
2023-05-08T11:02:16.753Z,6.90
2023-05-08T11:04:44.291Z,16.38
2023-05-08T11:07:11.593Z,8.23
2023-05-08T11:09:41.968Z,5.80
2023-05-08T11:12:21.434Z,7.35
2023-05-08T11:15:14.813Z,33.15
2023-05-08T11:17:46.712Z,4.72
2023-05-08T11:20:14.353Z,5.88
2023-05-08T11:22:47.608Z,4.57
2023-05-08T11:25:14.943Z,11.15
2023-05-08T11:27:51.274Z,5.32
2023-05-08T11:33:04.219Z,24.08
2023-05-08T11:35:41.113Z,5.60
2023-05-08T11:38:16.312Z,6.60
2023-05-08T11:41:07.793Z,5.45
2023-05-08T11:43:37.853Z,8.43
2023-05-08T11:46:17.693Z,9.70
2023-05-08T11:48:45.228Z,5.47
2023-05-08T11:51:13.765Z,4.65
2023-05-08T11:53:41.040Z,5.63
2023-05-08T11:56:08.796Z,8.50
2023-05-08T11:58:36.754Z,5.75
2023-05-08T12:01:04.164Z,4.93
2023-05-08T12:03:31.763Z,8.15
2023-05-08T12:05:59.917Z,5.13
2023-05-08T12:08:27.222Z,6.03
2023-05-08T12:10:55.469Z,6.03
2023-05-08T12:13:27.641Z,6.00
2023-05-08T12:15:57.753Z,4.50
2023-05-08T12:18:26.845Z,4.68
2023-05-08T12:20:57.189Z,10.20
2023-05-08T12:23:30.386Z,6.57
2023-05-08T12:26:02.120Z,4.97
2023-05-08T12:28:29.915Z,8.52
2023-05-08T12:30:57.386Z,6.05
2023-05-08T12:33:25.029Z,5.85
2023-05-08T12:35:52.480Z,7.65
2023-05-08T12:38:19.580Z,5.30
2023-05-08T12:40:53.058Z,6.57
2023-05-08T12:43:20.083Z,6.07
2023-05-08T12:45:50.660Z,7.28
2023-05-08T12:48:17.682Z,5.55
2023-05-08T12:50:46.140Z,4.65
2023-05-08T12:53:18.392Z,5.60
2023-05-08T12:55:57.371Z,5.88
2023-05-08T12:58:34.820Z,4.50
2023-05-08T13:01:13.322Z,4.82
2023-05-08T13:03:41.224Z,4.72
2023-05-08T13:06:20.851Z,5.65
2023-05-08T13:08:55.117Z,6.63
2023-05-08T13:11:31.578Z,5.82
2023-05-08T13:16:26.370Z,5.00
2023-05-08T13:18:53.549Z,5.78
2023-05-08T13:21:21.127Z,4.32
2023-05-08T13:23:48.174Z,10.60
2023-05-08T13:26:15.575Z,5.20
2023-05-08T13:28:42.686Z,6.38
2023-05-08T13:31:10.003Z,5.10
2023-05-08T13:33:38.307Z,4.80
2023-05-08T13:36:05.885Z,6.57
2023-05-08T13:38:34.528Z,6.63
2023-05-08T13:41:02.256Z,5.65
2023-05-08T13:43:29.665Z,4.57
2023-05-08T13:45:57.221Z,10.45
2023-05-08T13:48:24.585Z,5.55
2023-05-08T13:50:51.798Z,8.20
2023-05-08T13:53:19.965Z,5.07
2023-05-08T13:55:47.033Z,6.68
2023-05-08T13:58:14.688Z,4.72
2023-05-08T14:00:42.103Z,8.43
2023-05-08T14:03:09.474Z,7.07
2023-05-08T14:05:36.567Z,8.02
2023-05-08T14:08:04.049Z,7.70
2023-05-08T14:10:31.078Z,5.00
2023-05-08T14:12:58.433Z,6.97
2023-05-08T14:15:31.864Z,6.03
2023-05-08T14:18:04.267Z,6.05
2023-05-08T14:20:31.481Z,6.90
2023-05-08T14:23:00.204Z,6.28
2023-05-08T14:25:27.612Z,4.68
2023-05-08T14:27:55.046Z,4.88
2023-05-08T14:30:22.202Z,8.00
2023-05-08T14:32:49.978Z,8.82
2023-05-08T14:35:17.497Z,9.13
2023-05-08T14:37:45.222Z,6.32
2023-05-08T14:40:12.427Z,6.10
2023-05-08T14:42:39.856Z,5.45
2023-05-08T14:45:10.412Z,7.32
2023-05-08T14:47:38.924Z,5.30
2023-05-08T14:50:06.506Z,5.18
2023-05-08T14:52:33.963Z,5.68
2023-05-08T14:55:01.243Z,4.72
2023-05-08T14:57:28.729Z,7.35
2023-05-08T14:59:56.845Z,5.72
2023-05-08T15:02:24.467Z,4.95
2023-05-08T15:04:51.983Z,6.25
2023-05-08T15:07:19.372Z,5.07
2023-05-08T15:09:46.477Z,4.85
2023-05-08T15:12:13.844Z,10.65
2023-05-08T15:14:40.837Z,6.75
2023-05-08T15:17:08.219Z,6.35
2023-05-08T15:19:35.303Z,4.75
2023-05-08T15:22:03.730Z,3.72
2023-05-08T15:24:30.832Z,5.82
2023-05-08T15:26:58.175Z,4.70
2023-05-08T15:29:26.650Z,7.60
2023-05-08T15:31:54.137Z,12.23
2023-05-08T15:34:21.710Z,5.22
2023-05-08T15:36:50.116Z,4.53
2023-05-08T15:39:17.502Z,7.45
2023-05-08T15:41:45.168Z,6.95
2023-05-08T15:44:13.927Z,6.50
2023-05-08T15:46:41.325Z,4.63
2023-05-08T15:49:08.333Z,5.47
2023-05-08T15:51:35.692Z,4.47
2023-05-08T15:54:03.043Z,6.20
2023-05-08T15:56:30.394Z,6.65
2023-05-08T15:58:57.392Z,9.70
2023-05-08T16:01:24.798Z,5.53
2023-05-08T16:03:51.836Z,6.18
2023-05-08T16:06:19.203Z,4.05
2023-05-08T16:08:46.214Z,5.35
2023-05-08T16:11:13.631Z,6.07
2023-05-08T16:13:40.645Z,9.25
2023-05-08T16:16:08.196Z,10.13
2023-05-08T16:18:35.585Z,5.47
2023-05-08T16:21:08.789Z,8.60
2023-05-08T16:23:36.154Z,6.65
2023-05-08T16:26:03.793Z,8.23
2023-05-08T16:28:30.920Z,10.43
2023-05-08T16:30:58.322Z,7.30
2023-05-08T16:33:25.514Z,5.07
2023-05-08T16:35:53.130Z,4.35
2023-05-08T16:38:20.210Z,5.22
2023-05-08T16:40:47.668Z,5.80
2023-05-08T16:43:14.714Z,5.68
2023-05-08T16:45:42.804Z,5.80
2023-05-08T16:48:09.947Z,4.97
2023-05-08T16:50:37.501Z,5.22
2023-05-08T16:53:04.862Z,4.68
2023-05-08T16:55:32.306Z,4.93
2023-05-08T16:57:59.383Z,6.50
2023-05-08T17:00:26.835Z,6.63
2023-05-08T17:02:54.042Z,4.22
2023-05-08T17:05:21.552Z,5.40
2023-05-08T17:07:48.990Z,5.68
2023-05-08T17:10:16.640Z,8.27
2023-05-08T17:12:44.021Z,6.97
2023-05-08T17:15:11.833Z,7.18
2023-05-08T17:17:39.007Z,6.22
2023-05-08T17:20:07.002Z,6.60
2023-05-08T17:22:34.105Z,4.13
2023-05-08T17:25:01.435Z,6.85
2023-05-08T17:27:28.559Z,5.32
2023-05-08T17:29:56.032Z,7.97
2023-05-08T17:32:23.237Z,4.93
2023-05-08T17:34:50.636Z,6.63
2023-05-08T17:37:17.674Z,6.15
2023-05-08T17:39:45.054Z,5.57
2023-05-08T17:42:12.185Z,9.75
2023-05-08T17:44:39.546Z,6.57
2023-05-08T17:47:06.565Z,6.50
2023-05-08T17:49:33.880Z,6.65
2023-05-08T17:52:00.972Z,6.30
2023-05-08T17:54:28.329Z,6.15
2023-05-08T17:56:55.751Z,6.65
2023-05-08T17:59:23.170Z,7.10
2023-05-08T18:01:50.370Z,8.38
2023-05-08T18:04:17.756Z,5.57
2023-05-08T18:06:47.830Z,6.32
2023-05-08T18:09:15.370Z,9.00
2023-05-08T18:11:42.555Z,7.90
2023-05-08T18:14:10.041Z,10.60
2023-05-08T18:16:37.066Z,7.93
2023-05-08T18:19:04.463Z,6.75
2023-05-08T18:21:31.623Z,11.68
2023-05-08T18:23:58.986Z,8.07
2023-05-08T18:26:26.094Z,8.98
2023-05-08T18:28:53.540Z,6.43
2023-05-08T18:31:20.880Z,7.68
2023-05-08T18:33:48.350Z,8.18
2023-05-08T18:36:15.454Z,10.38
2023-05-08T18:38:42.970Z,10.60
2023-05-08T18:41:10.134Z,12.43
2023-05-08T18:43:37.422Z,11.88
2023-05-08T18:46:08.986Z,8.88
2023-05-08T18:48:36.367Z,12.32
2023-05-08T18:51:03.756Z,10.55
2023-05-08T18:53:31.760Z,10.52
2023-05-08T18:56:03.713Z,8.88
2023-05-08T18:58:31.373Z,10.02
2023-05-08T19:00:59.367Z,10.48
2023-05-08T19:03:26.991Z,12.40
2023-05-08T19:05:56.962Z,11.63
2023-05-08T19:08:24.598Z,7.45
2023-05-08T19:10:53.054Z,9.70
2023-05-08T19:13:20.561Z,10.32
2023-05-08T19:15:47.845Z,12.18
2023-05-08T19:18:15.220Z,15.95
2023-05-08T19:20:42.323Z,16.17
2023-05-08T19:23:09.671Z,18.92
2023-05-08T19:25:36.792Z,16.42
2023-05-08T19:28:04.706Z,18.67
2023-05-08T19:30:31.746Z,20.55
2023-05-08T19:32:59.211Z,19.45
2023-05-08T19:35:26.333Z,16.60
2023-05-08T19:37:53.738Z,16.90
2023-05-08T19:40:20.974Z,18.02
2023-05-08T19:42:48.425Z,19.08
2023-05-08T19:45:18.401Z,22.67
2023-05-08T19:47:49.457Z,24.40
2023-05-08T19:50:19.794Z,26.30
2023-05-08T19:52:48.576Z,20.27
2023-05-08T19:55:17.106Z,25.30
2023-05-08T19:57:44.974Z,23.90
2023-05-08T20:00:12.705Z,25.10
2023-05-08T20:02:40.473Z,21.90
2023-05-08T20:07:38.246Z,19.98
2023-05-08T20:10:06.024Z,16.85
2023-05-08T20:12:33.401Z,24.58
2023-05-08T20:15:00.478Z,18.27
2023-05-08T20:17:27.852Z,21.33
2023-05-08T20:19:55.014Z,17.50
2023-05-08T20:22:22.420Z,22.80
2023-05-08T20:24:49.444Z,17.88
2023-05-08T20:27:17.111Z,18.42
2023-05-08T20:29:45.321Z,17.38
2023-05-08T20:32:15.011Z,20.55
2023-05-08T20:34:42.208Z,21.00
2023-05-08T20:37:09.654Z,13.55
2023-05-08T20:39:36.755Z,16.65
2023-05-08T20:42:04.190Z,19.05
2023-05-08T20:44:31.240Z,27.65
2023-05-08T20:46:59.035Z,26.27
2023-05-08T20:49:26.151Z,27.63
2023-05-08T20:51:53.679Z,26.85
2023-05-08T20:54:21.510Z,25.10
2023-05-08T20:56:48.811Z,29.50
2023-05-08T20:59:16.743Z,33.90
2023-05-08T21:01:44.406Z,35.47
2023-05-08T21:04:11.592Z,28.67
2023-05-08T21:06:39.088Z,31.13
2023-05-08T21:09:07.117Z,32.35
2023-05-08T21:11:34.787Z,32.60
2023-05-08T21:14:01.858Z,27.95
2023-05-08T21:16:29.205Z,29.15
2023-05-08T21:18:58.453Z,22.60
2023-05-08T21:21:25.935Z,24.27
2023-05-08T21:23:53.448Z,27.27
2023-05-08T21:26:23.655Z,23.20
2023-05-08T21:28:52.515Z,23.05
2023-05-08T21:31:20.227Z,27.23
2023-05-08T21:33:47.472Z,21.48
2023-05-08T21:36:14.833Z,26.58
2023-05-08T21:38:41.967Z,25.17
2023-05-08T21:41:09.505Z,22.67
2023-05-08T21:43:37.205Z,28.77
2023-05-08T21:46:06.191Z,23.10
2023-05-08T21:48:34.018Z,22.85
2023-05-08T21:51:01.696Z,24.42
2023-05-08T21:53:28.969Z,22.05
2023-05-08T21:55:56.360Z,26.88
2023-05-08T21:58:23.389Z,20.13
2023-05-08T22:00:50.808Z,21.60
2023-05-08T22:03:18.367Z,21.75
2023-05-08T22:05:45.938Z,21.58
2023-05-08T22:08:13.020Z,25.52
2023-05-08T22:10:40.618Z,23.00
2023-05-08T22:13:07.943Z,23.40
2023-05-08T22:15:35.562Z,23.23
2023-05-08T22:18:03.099Z,20.92
2023-05-08T22:20:31.542Z,22.83
2023-05-08T22:22:58.581Z,24.65
2023-05-08T22:25:26.759Z,20.65
2023-05-08T22:27:54.049Z,23.25
2023-05-08T22:30:21.666Z,21.48
2023-05-08T22:32:57.210Z,21.33
2023-05-08T22:35:27.502Z,26.08
2023-05-08T22:37:57.158Z,23.63
2023-05-08T22:40:24.939Z,23.90
2023-05-08T22:42:53.526Z,21.00
2023-05-08T22:45:21.116Z,25.63
2023-05-08T22:47:48.483Z,22.20
2023-05-08T22:50:17.216Z,17.58
2023-05-08T22:52:44.566Z,21.17
2023-05-08T22:55:12.853Z,22.70
2023-05-08T22:57:40.165Z,20.10
2023-05-08T23:00:08.538Z,21.65
2023-05-08T23:02:36.031Z,18.92
2023-05-08T23:05:03.942Z,22.52
2023-05-08T23:07:31.296Z,26.50
2023-05-08T23:09:58.572Z,26.23
2023-05-08T23:12:25.630Z,23.67
2023-05-08T23:14:52.971Z,26.33
2023-05-08T23:17:19.959Z,23.88
2023-05-08T23:19:47.363Z,21.67
2023-05-08T23:22:14.433Z,26.00
2023-05-08T23:24:41.774Z,25.90
2023-05-08T23:27:08.855Z,25.35
2023-05-08T23:29:36.155Z,34.53
2023-05-08T23:32:03.304Z,29.73
2023-05-08T23:34:30.839Z,33.92
2023-05-08T23:36:58.020Z,33.78
2023-05-08T23:39:25.431Z,30.25
2023-05-08T23:41:53.105Z,34.40
2023-05-08T23:44:20.889Z,35.90
2023-05-08T23:46:48.075Z,32.50
2023-05-08T23:49:15.565Z,30.80
2023-05-08T23:51:42.626Z,30.55
2023-05-08T23:54:09.976Z,29.13
2023-05-08T23:56:37.065Z,38.85
2023-05-08T23:59:04.392Z,28.67
